Diamond, Washington
Current Conditions -  °F | °C
As of 8:53 PM on Monday 22 Dec 2014 (Local Time) from KPUW Reporting Station
Clear Clear  
Wind Chill: 27°   Ceiling: Unl
Heat Index: 32°   Visibility: 10mi
Dew Point: 28°   Wind: 5mph
Humidity: 85%   Direction: 250°WSW
Pressure: 30.34"   Gusts: NA
Location:  46.8882°N, 117.4°W
Report Text: KPUW 230453Z AUTO 25004KT 10SM CLR 00/M02 A3034 RMK AO2 SLP298 T00001022
Loading
Personal Weather Stations






























Interactive Weather Map New forecast layout! Learn more

10-Day Weather Forecast

Advertisements
Track Severe Weather on mobile